createdAt,value
2024-01-06T00:01:18.512Z,67.70
2024-01-06T00:03:46.564Z,66.20
2024-01-06T00:06:15.872Z,73.50
2024-01-06T00:08:43.937Z,81.50
2024-01-06T00:11:11.898Z,74.00
2024-01-06T00:13:39.851Z,71.50
2024-01-06T00:16:07.913Z,73.90
2024-01-06T00:18:35.984Z,70.50
2024-01-06T00:21:04.126Z,68.60
2024-01-06T00:23:32.000Z,65.80
2024-01-06T00:25:59.912Z,68.60
2024-01-06T00:28:27.852Z,70.10
2024-01-06T00:30:55.895Z,75.80
2024-01-06T00:33:23.806Z,67.50
2024-01-06T00:35:51.715Z,66.90
2024-01-06T00:38:21.759Z,63.00
2024-01-06T00:40:49.613Z,59.80
2024-01-06T00:43:17.692Z,65.00
2024-01-06T00:45:45.615Z,63.30
2024-01-06T00:48:13.529Z,64.30
2024-01-06T00:50:41.535Z,61.90
2024-01-06T00:53:09.521Z,57.70
2024-01-06T00:55:37.352Z,57.60
2024-01-06T00:58:05.302Z,59.90
2024-01-06T01:00:33.252Z,64.50
2024-01-06T01:03:01.097Z,63.30
2024-01-06T01:05:29.288Z,63.70
2024-01-06T01:07:57.197Z,60.70
2024-01-06T01:10:25.129Z,60.00
2024-01-06T01:12:53.129Z,60.80
2024-01-06T01:15:20.974Z,58.90
2024-01-06T01:17:48.956Z,60.10
2024-01-06T01:20:17.045Z,62.00
2024-01-06T01:22:44.941Z,59.80
2024-01-06T01:25:14.213Z,57.90
2024-01-06T01:27:42.199Z,57.80
2024-01-06T01:30:11.008Z,56.20
2024-01-06T01:32:39.180Z,57.70
2024-01-06T01:35:07.499Z,59.10
2024-01-06T01:37:35.441Z,61.60
2024-01-06T01:40:03.541Z,58.30
2024-01-06T01:42:31.790Z,56.90
2024-01-06T01:44:59.818Z,56.70
2024-01-06T01:47:28.213Z,57.20
2024-01-06T01:49:57.694Z,61.00
2024-01-06T01:52:25.785Z,59.60
2024-01-06T01:54:54.042Z,61.50
2024-01-06T01:57:24.409Z,62.70
2024-01-06T01:59:54.394Z,56.40
2024-01-06T02:02:23.583Z,56.80
2024-01-06T02:04:51.740Z,57.00
2024-01-06T02:07:19.836Z,58.30
2024-01-06T02:09:47.782Z,55.90
2024-01-06T02:12:15.735Z,57.00
2024-01-06T02:14:44.566Z,57.30
2024-01-06T02:17:12.489Z,63.80
2024-01-06T02:19:40.575Z,63.10
2024-01-06T02:22:08.583Z,63.90
2024-01-06T02:24:36.503Z,64.10
2024-01-06T02:27:04.973Z,64.00
2024-01-06T02:29:32.882Z,65.00
2024-01-06T02:32:00.859Z,64.60
2024-01-06T02:34:28.867Z,64.70
2024-01-06T02:36:56.802Z,59.20
2024-01-06T02:39:25.276Z,60.30
2024-01-06T02:42:18.513Z,60.30
2024-01-06T02:44:46.903Z,60.00
2024-01-06T02:47:14.911Z,64.50
2024-01-06T02:49:42.889Z,69.20
2024-01-06T02:52:10.923Z,65.70
2024-01-06T02:54:39.041Z,65.60
2024-01-06T02:57:06.935Z,64.50
2024-01-06T02:59:35.995Z,65.80
2024-01-06T03:02:04.062Z,71.70
2024-01-06T03:04:32.027Z,69.20
2024-01-06T03:07:00.005Z,72.20
2024-01-06T03:09:27.909Z,75.10
2024-01-06T03:11:55.776Z,78.40
2024-01-06T03:14:23.643Z,73.20
2024-01-06T03:16:51.557Z,70.90
2024-01-06T03:19:19.674Z,73.30
2024-01-06T03:21:47.782Z,81.60
2024-01-06T03:24:15.678Z,80.30
2024-01-06T03:26:43.538Z,80.50
2024-01-06T03:29:11.394Z,88.70
2024-01-06T03:31:39.873Z,72.40
2024-01-06T03:34:09.979Z,71.50
2024-01-06T03:36:39.069Z,73.60
2024-01-06T03:39:07.982Z,74.20
2024-01-06T03:41:35.878Z,70.90
2024-01-06T03:44:03.894Z,69.00
2024-01-06T03:46:31.795Z,73.70
2024-01-06T03:48:59.704Z,78.60
2024-01-06T03:51:27.791Z,80.70
2024-01-06T03:53:55.663Z,79.50
2024-01-06T03:56:23.673Z,80.20
2024-01-06T03:58:51.589Z,71.50
2024-01-06T04:01:19.533Z,69.80
2024-01-06T04:03:47.502Z,69.50
2024-01-06T04:06:15.453Z,74.20
2024-01-06T04:08:43.362Z,78.90
2024-01-06T04:11:11.261Z,77.20
2024-01-06T04:13:44.037Z,73.30
2024-01-06T04:16:11.912Z,73.10
2024-01-06T04:18:39.844Z,72.90
2024-01-06T04:21:07.758Z,70.10
2024-01-06T04:23:36.084Z,71.40
2024-01-06T04:26:06.128Z,74.10
2024-01-06T04:28:34.046Z,82.30
2024-01-06T04:31:01.964Z,73.90
2024-01-06T04:33:30.156Z,71.80
2024-01-06T04:35:59.216Z,70.60
2024-01-06T04:38:27.108Z,68.80
2024-01-06T04:40:55.144Z,75.30
2024-01-06T04:43:23.019Z,76.60
2024-01-06T04:45:52.147Z,74.20
2024-01-06T04:48:20.201Z,66.50
2024-01-06T04:50:48.135Z,70.00
2024-01-06T04:53:16.125Z,69.10
2024-01-06T04:55:44.031Z,66.50
2024-01-06T04:58:11.860Z,69.40
2024-01-06T05:00:39.795Z,72.10
2024-01-06T05:03:07.746Z,71.40
2024-01-06T05:05:35.770Z,72.30
2024-01-06T05:08:04.426Z,72.10
2024-01-06T05:10:32.273Z,70.40
2024-01-06T05:13:00.088Z,73.80
2024-01-06T05:15:28.173Z,76.70
2024-01-06T05:17:56.689Z,76.70
2024-01-06T05:20:24.731Z,75.40
2024-01-06T05:22:52.606Z,73.10
2024-01-06T05:25:20.477Z,73.90
2024-01-06T05:27:48.514Z,73.30
2024-01-06T05:30:16.929Z,73.30
2024-01-06T05:32:45.383Z,74.00
2024-01-06T05:35:13.317Z,72.80
2024-01-06T05:37:41.764Z,71.40
2024-01-06T05:40:10.483Z,68.20
2024-01-06T05:42:38.395Z,61.10
2024-01-06T05:45:06.848Z,61.70
2024-01-06T05:47:34.834Z,57.50
2024-01-06T05:50:02.776Z,58.20
2024-01-06T05:52:30.700Z,56.60
2024-01-06T05:54:59.790Z,55.20
2024-01-06T05:57:27.794Z,59.10
2024-01-06T05:59:55.698Z,58.40
2024-01-06T06:02:23.637Z,59.10
2024-01-06T06:04:51.638Z,61.40
2024-01-06T06:07:20.199Z,60.50
2024-01-06T06:09:49.161Z,56.00
2024-01-06T06:12:17.301Z,56.90
2024-01-06T06:14:45.244Z,56.40
2024-01-06T06:17:13.090Z,57.20
2024-01-06T06:19:41.108Z,64.30
2024-01-06T06:22:09.079Z,66.20
2024-01-06T06:24:36.950Z,61.40
2024-01-06T06:27:05.082Z,60.70
2024-01-06T06:29:32.944Z,63.40
2024-01-06T06:32:00.849Z,61.80
2024-01-06T06:34:28.934Z,61.30
2024-01-06T06:36:56.961Z,58.90
2024-01-06T06:39:24.944Z,62.60
2024-01-06T06:41:52.839Z,58.60
2024-01-06T06:44:21.431Z,57.60
2024-01-06T06:46:49.252Z,53.20
2024-01-06T06:49:17.253Z,55.30
2024-01-06T06:51:48.820Z,57.80
2024-01-06T06:54:17.420Z,57.20
2024-01-06T06:56:45.888Z,57.60
2024-01-06T06:59:13.786Z,58.10
2024-01-06T07:01:41.695Z,61.40
2024-01-06T07:04:09.602Z,55.70
2024-01-06T07:06:37.545Z,58.40
2024-01-06T07:09:06.326Z,61.20
2024-01-06T07:11:34.489Z,63.10
2024-01-06T07:14:02.447Z,63.10
2024-01-06T07:16:30.802Z,68.40
2024-01-06T07:18:58.819Z,68.40
2024-01-06T07:21:26.827Z,71.00
2024-01-06T07:23:54.704Z,67.50
2024-01-06T07:26:22.562Z,72.50
2024-01-06T07:28:50.510Z,72.00
2024-01-06T07:31:19.006Z,72.20
2024-01-06T07:33:47.043Z,75.10
2024-01-06T07:36:15.048Z,79.70
2024-01-06T07:38:43.083Z,75.40
2024-01-06T07:41:11.019Z,73.50
2024-01-06T07:43:38.890Z,73.80
2024-01-06T07:46:08.347Z,76.70
2024-01-06T07:48:37.451Z,66.40
2024-01-06T07:51:05.429Z,60.70
2024-01-06T07:53:34.539Z,58.80
2024-01-06T07:56:02.461Z,65.00
2024-01-06T07:58:30.481Z,75.20
2024-01-06T08:00:58.476Z,81.30
2024-01-06T08:03:26.616Z,78.00
2024-01-06T08:05:55.609Z,77.30
2024-01-06T08:08:23.612Z,69.00
2024-01-06T08:10:51.554Z,68.80
2024-01-06T08:13:19.439Z,65.80
2024-01-06T08:15:47.400Z,60.80
2024-01-06T08:18:15.853Z,62.50
2024-01-06T08:20:43.955Z,66.30
2024-01-06T08:23:11.908Z,72.30
2024-01-06T08:25:39.789Z,102.10
2024-01-06T08:28:07.654Z,112.20
2024-01-06T08:30:35.670Z,104.90
2024-01-06T08:33:04.104Z,74.90
2024-01-06T08:35:32.934Z,70.10
2024-01-06T08:38:04.692Z,65.90
2024-01-06T08:40:32.618Z,65.20
2024-01-06T08:43:00.588Z,65.10
2024-01-06T08:45:29.003Z,59.50
2024-01-06T08:47:58.174Z,60.40
2024-01-06T08:50:26.113Z,67.40
2024-01-06T08:52:53.965Z,74.10
2024-01-06T08:55:21.975Z,83.60
2024-01-06T08:57:49.988Z,93.70
2024-01-06T09:00:18.763Z,117.90
2024-01-06T09:02:47.088Z,84.10
2024-01-06T09:05:15.184Z,74.40
2024-01-06T09:07:43.093Z,72.50
2024-01-06T09:10:11.039Z,73.10
2024-01-06T09:12:39.375Z,75.30
2024-01-06T09:15:08.181Z,78.90
2024-01-06T09:17:36.213Z,81.00
2024-01-06T09:20:04.657Z,79.50
2024-01-06T09:22:33.654Z,83.50
2024-01-06T09:25:01.950Z,80.70
2024-01-06T09:27:29.962Z,77.00
2024-01-06T09:29:57.838Z,69.60
2024-01-06T09:32:25.767Z,70.70
2024-01-06T09:34:53.796Z,68.70
2024-01-06T09:37:21.975Z,68.00
2024-01-06T09:39:50.579Z,65.00
2024-01-06T09:42:18.544Z,67.10
2024-01-06T09:44:46.669Z,64.20
2024-01-06T09:47:17.781Z,66.00
2024-01-06T09:49:52.232Z,66.20
2024-01-06T09:52:24.216Z,67.40
2024-01-06T09:54:54.979Z,68.90
2024-01-06T09:57:24.951Z,72.80
2024-01-06T09:59:53.851Z,69.30
2024-01-06T10:02:24.342Z,67.20
2024-01-06T10:04:52.712Z,63.70
2024-01-06T10:07:21.009Z,67.30
2024-01-06T10:09:48.952Z,68.30
2024-01-06T10:12:17.167Z,68.70
2024-01-06T10:14:45.270Z,70.70
2024-01-06T10:17:14.007Z,73.00
2024-01-06T10:19:41.987Z,71.30
2024-01-06T10:22:10.490Z,69.00
2024-01-06T10:24:39.248Z,68.30
2024-01-06T10:27:07.551Z,70.30
2024-01-06T10:29:35.704Z,72.10
2024-01-06T10:32:04.261Z,75.80
2024-01-06T10:34:33.960Z,77.80
2024-01-06T10:37:02.379Z,79.50
2024-01-06T10:39:30.990Z,79.20
2024-01-06T10:41:59.615Z,82.80
2024-01-06T10:44:30.222Z,76.90
2024-01-06T10:46:59.948Z,73.00
2024-01-06T10:49:28.405Z,77.50
2024-01-06T10:51:57.761Z,76.90
2024-01-06T10:54:26.075Z,75.90
2024-01-06T10:56:55.604Z,73.70
2024-01-06T10:59:26.148Z,69.90
2024-01-06T11:01:55.302Z,65.90
2024-01-06T11:04:24.605Z,67.70
2024-01-06T11:06:52.744Z,77.00
2024-01-06T11:09:20.650Z,90.50
2024-01-06T11:11:49.985Z,100.20
2024-01-06T11:14:34.292Z,86.20
2024-01-06T11:17:02.175Z,77.60
2024-01-06T11:19:36.537Z,84.30
2024-01-06T11:22:25.663Z,82.00
2024-01-06T11:24:57.665Z,82.60
2024-01-06T11:27:30.425Z,90.20
2024-01-06T11:30:07.104Z,74.20
2024-01-06T11:32:40.276Z,72.40
2024-01-06T11:35:13.753Z,78.70
2024-01-06T11:37:41.616Z,78.10
2024-01-06T11:40:26.440Z,80.60
2024-01-06T11:43:03.431Z,79.10
2024-01-06T11:45:31.630Z,80.10
2024-01-06T11:48:03.012Z,79.70
2024-01-06T11:50:37.090Z,77.10
2024-01-06T11:53:07.176Z,72.80
2024-01-06T11:55:36.189Z,72.80
2024-01-06T11:58:05.346Z,77.30
2024-01-06T12:00:41.850Z,77.50
2024-01-06T12:03:10.882Z,75.70
2024-01-06T12:05:39.468Z,73.30
2024-01-06T12:08:10.950Z,75.90
2024-01-06T12:10:38.944Z,79.80
2024-01-06T12:13:11.482Z,77.50
2024-01-06T12:15:41.500Z,81.00
2024-01-06T12:18:10.086Z,81.60
2024-01-06T12:20:38.110Z,86.10
2024-01-06T12:23:07.694Z,88.20
2024-01-06T12:25:40.291Z,85.40
2024-01-06T12:28:09.504Z,89.30
2024-01-06T12:30:39.938Z,82.40
2024-01-06T12:33:08.156Z,79.50
2024-01-06T12:35:36.445Z,81.70
2024-01-06T12:38:09.085Z,89.20
2024-01-06T12:40:38.683Z,120.90
2024-01-06T12:43:07.366Z,105.80
2024-01-06T12:45:35.697Z,103.40
2024-01-06T12:48:04.131Z,94.40
2024-01-06T12:50:32.252Z,94.90
2024-01-06T12:53:00.130Z,86.60
2024-01-06T12:55:28.025Z,88.20
2024-01-06T12:57:56.030Z,82.10
2024-01-06T13:00:24.052Z,92.40
2024-01-06T13:02:52.140Z,98.20
2024-01-06T13:05:21.244Z,98.10
2024-01-06T13:07:50.155Z,98.60
2024-01-06T13:10:18.564Z,100.20
2024-01-06T13:12:46.528Z,94.70
2024-01-06T13:15:14.946Z,97.60
2024-01-06T13:17:43.086Z,89.50
2024-01-06T13:20:11.432Z,60.90
2024-01-06T13:22:41.808Z,51.40
2024-01-06T13:25:10.686Z,41.00
2024-01-06T13:27:39.298Z,41.70
2024-01-06T13:30:07.949Z,38.10
2024-01-06T13:32:40.072Z,35.50
2024-01-06T13:35:08.697Z,33.60
2024-01-06T13:37:36.718Z,31.90
2024-01-06T13:40:05.181Z,39.00
2024-01-06T13:42:33.156Z,31.50
2024-01-06T13:45:04.554Z,32.10
2024-01-06T13:47:32.609Z,29.20
2024-01-06T13:50:00.688Z,28.30
2024-01-06T13:52:28.762Z,27.50
2024-01-06T13:54:56.602Z,29.10
2024-01-06T13:57:24.988Z,33.30
2024-01-06T13:59:52.921Z,37.10
2024-01-06T14:02:20.854Z,29.00
2024-01-06T14:04:49.316Z,27.60
2024-01-06T14:07:20.431Z,24.10
2024-01-06T14:09:48.426Z,26.10
2024-01-06T14:12:16.440Z,25.10
2024-01-06T14:14:44.472Z,29.80
2024-01-06T14:17:12.731Z,27.10
2024-01-06T14:19:42.399Z,26.00
2024-01-06T14:22:11.323Z,21.10
2024-01-06T14:24:39.427Z,32.20
2024-01-06T14:27:07.344Z,34.40
2024-01-06T14:29:36.116Z,32.60
2024-01-06T14:32:04.182Z,30.40
2024-01-06T14:34:32.211Z,30.90
2024-01-06T14:37:01.560Z,33.30
2024-01-06T14:39:29.608Z,30.80
2024-01-06T14:41:57.497Z,34.30
2024-01-06T14:44:28.381Z,38.30
2024-01-06T14:46:56.317Z,39.10
2024-01-06T14:49:25.336Z,36.20
2024-01-06T14:51:53.502Z,30.90
2024-01-06T14:54:21.460Z,32.60
2024-01-06T14:56:49.427Z,28.70
2024-01-06T14:59:20.036Z,31.10
2024-01-06T15:01:49.134Z,33.80
2024-01-06T15:04:19.869Z,37.10
2024-01-06T15:06:48.527Z,33.70
2024-01-06T15:09:18.233Z,32.50
2024-01-06T15:11:46.399Z,32.60
2024-01-06T15:14:15.216Z,30.90
2024-01-06T15:16:43.273Z,31.20
2024-01-06T15:19:12.937Z,33.60
2024-01-06T15:21:40.968Z,32.30
2024-01-06T15:24:08.966Z,32.40
2024-01-06T15:26:36.877Z,31.90
2024-01-06T15:29:04.777Z,35.60
2024-01-06T15:31:32.715Z,31.00
2024-01-06T15:34:01.054Z,28.90
2024-01-06T15:36:29.214Z,34.90
2024-01-06T15:38:57.305Z,32.70
2024-01-06T15:41:25.237Z,29.60
2024-01-06T15:43:53.157Z,26.00
2024-01-06T15:46:21.979Z,30.10
2024-01-06T15:48:50.160Z,26.80
2024-01-06T15:51:18.455Z,26.20
2024-01-06T15:53:46.502Z,27.10
2024-01-06T15:56:14.367Z,30.00
2024-01-06T15:58:42.394Z,24.10
2024-01-06T16:01:10.610Z,24.40
2024-01-06T16:03:39.030Z,23.80
2024-01-06T16:06:07.381Z,27.60
2024-01-06T16:08:35.924Z,30.10
2024-01-06T16:11:03.901Z,24.80
2024-01-06T16:13:31.815Z,25.40
2024-01-06T16:15:59.771Z,26.10
2024-01-06T16:18:30.245Z,25.60
2024-01-06T16:21:00.019Z,25.10
2024-01-06T16:23:28.170Z,26.40
2024-01-06T16:25:59.879Z,28.30
2024-01-06T16:28:28.142Z,25.70
2024-01-06T16:30:56.209Z,27.10
2024-01-06T16:33:25.470Z,25.90
2024-01-06T16:35:53.417Z,23.90
2024-01-06T16:38:21.396Z,22.50
2024-01-06T16:40:49.299Z,27.80
2024-01-06T16:43:17.285Z,28.10
2024-01-06T16:45:45.857Z,23.30
2024-01-06T16:48:14.040Z,23.70
2024-01-06T16:50:44.120Z,37.40
2024-01-06T16:53:14.235Z,27.10
2024-01-06T16:55:42.086Z,24.50
2024-01-06T16:58:10.018Z,21.70
2024-01-06T17:00:38.032Z,21.20
2024-01-06T17:03:06.236Z,19.20
2024-01-06T17:05:34.225Z,21.60
2024-01-06T17:08:02.135Z,24.20
2024-01-06T17:10:30.037Z,28.40
2024-01-06T17:12:58.010Z,23.00
2024-01-06T17:15:28.217Z,22.20
2024-01-06T17:17:56.248Z,21.10
2024-01-06T17:20:24.616Z,21.20
2024-01-06T17:22:53.107Z,19.80
2024-01-06T17:25:21.380Z,20.90
2024-01-06T17:27:49.414Z,25.10
2024-01-06T17:30:18.838Z,48.20
2024-01-06T17:32:46.984Z,140.50
2024-01-06T17:35:15.137Z,21.90
2024-01-06T17:37:43.212Z,26.70
2024-01-06T17:40:11.647Z,16.70
2024-01-06T17:42:39.659Z,16.40
2024-01-06T17:45:08.030Z,17.70
2024-01-06T17:47:38.679Z,15.40
2024-01-06T17:50:07.180Z,18.70
2024-01-06T17:52:35.209Z,16.10
2024-01-06T17:55:03.788Z,18.20
2024-01-06T17:57:35.978Z,19.50
2024-01-06T18:00:05.142Z,19.80
2024-01-06T18:02:36.190Z,17.20
2024-01-06T18:05:06.651Z,17.90
2024-01-06T18:07:34.775Z,17.40
2024-01-06T18:10:04.581Z,15.90
2024-01-06T18:12:34.036Z,14.50
2024-01-06T18:15:02.466Z,14.20
2024-01-06T18:17:30.478Z,17.30
2024-01-06T18:19:58.457Z,18.40
2024-01-06T18:22:26.428Z,18.10
2024-01-06T18:24:54.336Z,17.30
2024-01-06T18:27:22.289Z,14.70
2024-01-06T18:29:50.708Z,14.70
2024-01-06T18:32:18.772Z,21.10
2024-01-06T18:34:47.927Z,15.90
2024-01-06T18:37:16.117Z,13.20
2024-01-06T18:39:45.086Z,15.70
2024-01-06T18:42:15.350Z,14.60
2024-01-06T18:44:43.532Z,12.50
2024-01-06T18:47:12.973Z,12.90
2024-01-06T18:49:41.208Z,14.60
2024-01-06T18:52:09.331Z,12.70
2024-01-06T18:54:42.288Z,12.20
2024-01-06T18:57:15.161Z,13.80
2024-01-06T18:59:43.202Z,13.40
2024-01-06T19:02:13.028Z,33.70
2024-01-06T19:04:41.173Z,22.20
2024-01-06T19:07:09.296Z,15.00
2024-01-06T19:09:38.241Z,13.90
2024-01-06T19:12:07.079Z,14.90
2024-01-06T19:14:39.209Z,13.70
2024-01-06T19:17:07.514Z,15.30
2024-01-06T19:19:40.582Z,16.80
2024-01-06T19:22:08.938Z,15.30
2024-01-06T19:24:43.086Z,14.60
2024-01-06T19:27:12.746Z,13.70
2024-01-06T19:29:44.433Z,21.60
2024-01-06T19:32:13.345Z,14.40
2024-01-06T19:34:42.638Z,16.40
2024-01-06T19:37:11.198Z,14.60
2024-01-06T19:39:39.464Z,15.10
2024-01-06T19:42:08.235Z,13.40
2024-01-06T19:44:36.509Z,13.70
2024-01-06T19:47:04.926Z,14.70
2024-01-06T19:49:33.676Z,13.80
2024-01-06T19:52:01.836Z,17.40
2024-01-06T19:54:33.471Z,23.50
2024-01-06T19:57:01.789Z,17.90
2024-01-06T19:59:29.979Z,16.10
2024-01-06T20:01:57.866Z,14.00
2024-01-06T20:04:27.258Z,14.60
2024-01-06T20:06:55.615Z,12.80
2024-01-06T20:09:23.732Z,13.80
2024-01-06T20:11:51.661Z,14.10
2024-01-06T20:14:19.871Z,15.30
2024-01-06T20:16:47.925Z,15.10
2024-01-06T20:19:16.046Z,14.40
2024-01-06T20:21:44.011Z,14.00
2024-01-06T20:24:12.161Z,17.10
2024-01-06T20:26:40.106Z,25.50
2024-01-06T20:29:07.994Z,16.60
2024-01-06T20:31:36.065Z,17.40
2024-01-06T20:34:04.705Z,16.10
2024-01-06T20:36:32.730Z,16.10
2024-01-06T20:39:00.630Z,16.50
2024-01-06T20:41:28.604Z,18.00
2024-01-06T20:43:56.573Z,17.30
2024-01-06T20:46:25.394Z,19.10
2024-01-06T20:48:54.207Z,17.10
2024-01-06T20:51:22.145Z,16.80
2024-01-06T20:53:52.779Z,20.00
2024-01-06T20:56:20.718Z,21.50
2024-01-06T20:58:49.880Z,30.30
2024-01-06T21:01:17.922Z,19.80
2024-01-06T21:03:46.198Z,17.10
2024-01-06T21:06:15.734Z,16.80
2024-01-06T21:08:43.627Z,18.80
2024-01-06T21:11:11.614Z,19.20
2024-01-06T21:13:39.480Z,19.30
2024-01-06T21:16:07.535Z,18.40
2024-01-06T21:18:38.973Z,19.30
2024-01-06T21:21:07.151Z,18.90
2024-01-06T21:23:40.288Z,18.20
2024-01-06T21:26:13.270Z,19.50
2024-01-06T21:28:41.249Z,22.10
2024-01-06T21:31:10.440Z,25.30
2024-01-06T21:33:38.684Z,20.30
2024-01-06T21:36:07.999Z,18.10
2024-01-06T21:38:36.092Z,20.30
2024-01-06T21:41:04.406Z,19.30
2024-01-06T21:43:32.756Z,20.30
2024-01-06T21:46:00.717Z,20.10
2024-01-06T21:48:31.862Z,20.40
2024-01-06T21:50:59.964Z,19.00
2024-01-06T21:53:28.064Z,24.30
2024-01-06T21:55:56.009Z,22.00
2024-01-06T21:58:24.228Z,22.60
2024-01-06T22:00:55.544Z,21.90
2024-01-06T22:03:24.027Z,22.10
2024-01-06T22:05:52.134Z,19.20
2024-01-06T22:08:20.155Z,18.80
2024-01-06T22:10:48.018Z,20.00
2024-01-06T22:13:16.093Z,19.50
2024-01-06T22:15:44.171Z,19.30
2024-01-06T22:18:12.662Z,19.90
2024-01-06T22:20:40.643Z,19.80
2024-01-06T22:23:08.477Z,22.60
2024-01-06T22:25:36.306Z,20.80
2024-01-06T22:28:04.975Z,26.40
2024-01-06T22:30:33.912Z,22.50
2024-01-06T22:33:02.570Z,20.40
2024-01-06T22:35:30.484Z,20.30
2024-01-06T22:37:58.507Z,19.20
2024-01-06T22:40:26.352Z,17.70
2024-01-06T22:42:54.286Z,18.20
2024-01-06T22:45:24.156Z,17.60
2024-01-06T22:47:52.256Z,18.40
2024-01-06T22:50:20.293Z,18.70
2024-01-06T22:52:48.125Z,20.20
2024-01-06T22:55:17.494Z,18.00
2024-01-06T22:57:45.532Z,17.60
2024-01-06T23:00:23.205Z,18.90
2024-01-06T23:02:51.142Z,16.30
2024-01-06T23:05:19.009Z,17.10
2024-01-06T23:07:46.879Z,16.70
2024-01-06T23:10:14.899Z,21.30
2024-01-06T23:12:43.031Z,24.90
2024-01-06T23:15:11.671Z,22.00
2024-01-06T23:17:39.666Z,17.90
2024-01-06T23:20:08.628Z,16.20
2024-01-06T23:22:36.476Z,16.80
2024-01-06T23:25:05.120Z,18.60
2024-01-06T23:27:33.156Z,19.30
2024-01-06T23:30:01.015Z,25.90
2024-01-06T23:32:29.002Z,20.20
2024-01-06T23:34:56.973Z,20.40
2024-01-06T23:37:24.857Z,17.80
2024-01-06T23:39:52.722Z,19.60
2024-01-06T23:42:22.979Z,18.60
2024-01-06T23:44:55.454Z,19.50
2024-01-06T23:47:23.348Z,18.70
2024-01-06T23:49:51.338Z,18.20
2024-01-06T23:52:20.946Z,22.30
2024-01-06T23:54:48.840Z,17.60
2024-01-06T23:57:16.718Z,18.60
2024-01-06T23:59:44.761Z,17.80
